Time;durP1;ratioP1;P1;durP2;ratioP2;P2;SDS_P1;SDS_P2;PMS_P1;PMS_P2;Temp;Humidity;BMP_temperature;BMP_pressure;BME280_temperature;BME280_humidity;BME280_pressure;Samples;Min_cycle;Max_cycle;Signal;HPM_P1;HPM_P2
2022/03/25 00:00:40;;;;;;;21.13;9.40;;;;;;;10.47;27.59;95516.66;6428626;22;20347;-83
2022/03/25 00:03:06;;;;;;;28.95;9.68;;;;;;;10.75;27.48;95555.97;6399393;22;20070;-83
2022/03/25 00:05:32;;;;;;;33.65;9.80;;;;;;;10.85;27.59;95579.81;6399302;22;20082;-83
2022/03/25 00:07:58;;;;;;;26.52;10.30;;;;;;;10.07;28.03;95460.66;6399823;22;20033;-82
2022/03/25 00:10:24;;;;;;;21.45;9.50;;;;;;;9.94;27.94;95447.94;6398919;22;20096;-83
2022/03/25 00:12:49;;;;;;;23.25;9.50;;;;;;;9.59;27.95;95392.25;6428220;22;20001;-83
2022/03/25 00:15:16;;;;;;;26.50;9.63;;;;;;;10.72;28.08;95569.75;6399945;22;20065;-83
2022/03/25 00:17:42;;;;;;;26.58;10.07;;;;;;;10.17;28.50;95509.44;6398815;22;20009;-83
2022/03/25 00:20:08;;;;;;;34.35;11.40;;;;;;;10.39;28.66;95532.03;6399407;22;20013;-83
2022/03/25 00:22:34;;;;;;;36.22;13.43;;;;;;;10.35;28.39;95516.94;6428090;22;20001;-83
2022/03/25 00:25:00;;;;;;;33.78;12.73;;;;;;;10.00;28.88;95446.06;6428244;22;20031;-84
2022/03/25 00:27:25;;;;;;;27.73;12.02;;;;;;;10.22;28.40;95522.75;6398539;22;20006;-84
2022/03/25 00:29:51;;;;;;;29.00;11.60;;;;;;;9.93;28.78;95496.66;6428273;22;20381;-83
2022/03/25 00:32:16;;;;;;;24.55;10.70;;;;;;;10.11;28.38;95521.09;6399888;22;20005;-83
2022/03/25 00:34:43;;;;;;;27.13;10.05;;;;;;;9.60;28.07;95417.69;6399465;22;20013;-83
2022/03/25 00:37:10;;;;;;;19.33;9.43;;;;;;;10.58;27.46;95550.09;6427934;22;20477;-83
2022/03/25 00:39:36;;;;;;;19.50;8.70;;;;;;;10.03;27.50;95454.31;6399044;22;20001;-83
2022/03/25 00:42:03;;;;;;;19.00;8.68;;;;;;;9.99;27.65;95439.97;6399199;22;20054;-83
2022/03/25 00:44:28;;;;;;;19.65;8.48;;;;;;;9.75;27.26;95383.28;6398655;22;20016;-82
2022/03/25 00:46:54;;;;;;;21.38;7.75;;;;;;;10.73;27.66;95542.16;6427941;22;20072;-83
2022/03/25 00:49:19;;;;;;;17.00;8.95;;;;;;;10.73;27.53;95547.47;6399344;22;20274;-83
2022/03/25 00:51:46;;;;;;;15.48;7.80;;;;;;;9.66;27.64;95380.34;6399291;22;20074;-83
2022/03/25 00:54:12;;;;;;;13.73;8.05;;;;;;;10.14;27.47;95449.84;6399694;22;20014;-83
2022/03/25 00:56:38;;;;;;;23.80;8.32;;;;;;;10.61;27.49;95512.44;6399571;22;20009;-83
2022/03/25 00:59:03;;;;;;;17.98;8.13;;;;;;;8.13;27.69;95116.50;6399043;22;20017;-83
2022/03/25 01:01:29;;;;;;;21.10;8.38;;;;;;;9.00;27.29;95247.06;6429636;22;20009;-83
2022/03/25 01:03:55;;;;;;;19.85;8.90;;;;;;;10.50;27.57;95485.13;6403068;22;20012;-84
2022/03/25 01:06:21;;;;;;;17.00;7.55;;;;;;;10.24;27.18;95449.84;6400696;22;20105;-83
2022/03/25 01:08:47;;;;;;;15.50;7.18;;;;;;;10.48;27.57;95487.25;6400966;22;20017;-83
2022/03/25 01:11:13;;;;;;;19.60;8.48;;;;;;;10.44;27.34;95486.19;6401333;22;20045;-83
2022/03/25 01:13:38;;;;;;;16.40;8.00;;;;;;;9.44;27.39;95336.63;6400611;22;20593;-83
2022/03/25 01:16:06;;;;;;;22.30;8.07;;;;;;;10.61;27.24;95507.13;6400422;22;20009;-83
2022/03/25 01:18:31;;;;;;;20.10;7.80;;;;;;;9.78;27.73;95368.69;6400405;22;20014;-83
2022/03/25 01:20:57;;;;;;;17.58;8.20;;;;;;;9.74;27.27;95392.28;6400924;22;20349;-84
2022/03/25 01:23:23;;;;;;;24.83;7.85;;;;;;;10.19;27.35;95455.16;6401219;22;20040;-83
2022/03/25 01:25:49;;;;;;;20.23;7.75;;;;;;;10.14;27.48;95441.88;6429068;22;20043;-82
2022/03/25 01:28:15;;;;;;;15.98;7.85;;;;;;;10.61;27.70;95523.03;6430332;22;19997;-83
2022/03/25 01:30:40;;;;;;;11.95;7.35;;;;;;;10.25;27.75;95474.50;6401130;22;20422;-83
2022/03/25 01:33:06;;;;;;;18.20;7.97;;;;;;;10.03;27.67;95435.75;6400874;22;20050;-83
2022/03/25 01:35:32;;;;;;;14.77;7.55;;;;;;;10.31;27.81;95492.00;6401304;22;20057;-83
2022/03/25 01:37:57;;;;;;;16.08;7.40;;;;;;;10.23;27.95;95490.66;6430461;22;20028;-83
2022/03/25 01:40:23;;;;;;;16.23;7.45;;;;;;;10.50;27.86;95524.13;6400898;22;20013;-83
2022/03/25 01:42:49;;;;;;;28.35;9.55;;;;;;;10.24;28.04;95488.81;6400950;22;20013;-83
2022/03/25 01:45:28;;;;;;;18.08;7.95;;;;;;;10.52;27.62;95551.97;6429901;22;20005;-83
2022/03/25 01:47:54;;;;;;;16.27;8.30;;;;;;;8.93;27.66;95286.19;6429242;22;20019;-83
2022/03/25 01:50:20;;;;;;;26.27;8.45;;;;;;;10.03;27.61;95494.06;6399663;22;20009;-83
2022/03/25 01:52:47;;;;;;;16.95;7.97;;;;;;;9.88;27.20;95453.50;6428720;22;19997;-83
2022/03/25 06:16:18;;;;;;;21.45;10.15;;;;;;;8.44;29.69;95334.13;6148865;22;1744941;-88
2022/03/25 06:18:47;;;;;;;25.75;10.50;;;;;;;9.69;29.89;95522.03;6219951;23;20458;-86
2022/03/25 06:21:13;;;;;;;25.73;10.40;;;;;;;4.41;29.70;94704.31;6227396;23;20012;-85
2022/03/25 06:23:40;;;;;;;27.52;11.02;;;;;;;6.97;29.55;95100.81;6234050;23;20011;-86
2022/03/25 06:26:15;;;;;;;24.90;9.90;;;;;;;5.94;29.68;94919.53;6232527;23;20008;-87
2022/03/25 06:28:41;;;;;;;27.98;10.05;;;;;;;9.63;28.97;95465.59;6221626;23;20032;-84
2022/03/25 06:31:08;;;;;;;29.08;11.00;;;;;;;10.50;29.36;95593.84;6225068;23;20134;-87
2022/03/25 06:33:34;;;;;;;22.38;10.30;;;;;;;10.54;29.21;95589.59;6232424;23;20046;-86
2022/03/25 06:36:00;;;;;;;28.02;10.80;;;;;;;8.27;29.60;95248.09;6229381;23;20046;-87
2022/03/25 06:38:26;;;;;;;18.38;9.65;;;;;;;10.28;28.83;95545.56;6232946;23;20008;-86
2022/03/25 06:40:51;;;;;;;25.88;11.02;;;;;;;6.81;28.80;95027.13;6234384;23;20031;-86
2022/03/25 06:43:17;;;;;;;25.27;11.23;;;;;;;7.41;29.00;95073.38;6231403;23;20098;-86
2022/03/25 06:45:43;;;;;;;24.73;11.35;;;;;;;9.76;28.92;95443.16;6230082;23;20228;-85
2022/03/25 06:48:08;;;;;;;29.65;11.52;;;;;;;10.72;28.35;95578.50;6233705;23;20708;-85
2022/03/25 06:50:34;;;;;;;27.92;11.77;;;;;;;9.19;28.67;95321.47;6231949;23;20019;-87
2022/03/25 06:53:10;;;;;;;32.45;12.50;;;;;;;10.84;28.55;95586.19;6231038;23;20087;-86
2022/03/25 06:55:36;;;;;;;26.75;10.85;;;;;;;9.18;28.08;95304.00;6236298;23;20066;-86
2022/03/25 06:58:03;;;;;;;26.92;10.45;;;;;;;9.40;28.91;95330.25;6207315;23;20418;-86
2022/03/25 07:00:29;;;;;;;30.70;12.32;;;;;;;11.11;28.02;95597.34;6229421;23;20030;-87
2022/03/25 07:03:07;;;;;;;23.60;12.10;;;;;;;11.15;27.43;95587.78;6228996;23;20018;-86
2022/03/25 07:05:33;;;;;;;29.38;11.82;;;;;;;10.42;27.95;95483.81;6228265;23;20014;-85
2022/03/25 07:07:59;;;;;;;25.30;13.15;;;;;;;11.17;27.47;95567.09;6229772;23;20008;-85
2022/03/25 07:10:26;;;;;;;28.60;13.18;;;;;;;9.79;27.93;95349.91;6230024;23;20008;-86
2022/03/25 07:12:54;;;;;;;33.10;13.57;;;;;;;8.57;27.84;95149.66;6232118;23;20824;-85
2022/03/25 07:15:20;;;;;;;30.05;13.63;;;;;;;7.12;27.86;94910.25;6228223;23;20394;-86
2022/03/25 07:17:49;;;;;;;30.27;13.30;;;;;;;9.67;27.83;95307.78;6228367;23;20476;-87
2022/03/25 07:20:21;;;;;;;31.90;14.60;;;;;;;11.56;28.14;95585.88;6230160;23;20478;-87
2022/03/25 07:22:49;;;;;;;29.85;13.48;;;;;;;9.63;27.29;95271.50;6224574;23;20039;-88
2022/03/25 07:25:16;;;;;;;26.40;14.85;;;;;;;10.30;27.46;95373.78;6231218;23;20505;-88
2022/03/25 07:27:43;;;;;;;37.22;14.20;;;;;;;7.24;28.04;94960.16;6226216;23;20016;-87
2022/03/25 07:30:10;;;;;;;29.88;13.38;;;;;;;10.03;27.68;95335.06;6230140;23;20019;-87
2022/03/25 07:32:36;;;;;;;28.80;13.63;;;;;;;7.56;27.63;94981.91;6228357;23;20000;-85
2022/03/25 07:35:02;;;;;;;36.67;13.90;;;;;;;10.09;27.91;95325.25;6228695;23;20308;-86
2022/03/25 07:37:31;;;;;;;26.35;14.15;;;;;;;7.98;27.26;95010.81;6225381;23;20008;-85
2022/03/25 07:39:56;;;;;;;39.00;17.42;;;;;;;9.80;27.17;95297.72;6228119;23;20051;-87
2022/03/25 07:42:22;;;;;;;42.80;16.52;;;;;;;11.69;27.34;95594.34;6227462;23;20020;-85
2022/03/25 07:44:48;;;;;;;41.88;17.38;;;;;;;11.81;27.22;95597.53;6225848;23;20016;-86
2022/03/25 07:47:14;;;;;;;37.80;16.58;;;;;;;11.02;27.33;95499.94;6230451;23;20019;-86
2022/03/25 07:49:40;;;;;;;38.33;15.98;;;;;;;8.95;27.12;95148.41;6228154;23;20012;-85
2022/03/25 07:52:14;;;;;;;35.45;16.45;;;;;;;11.87;26.68;95594.59;6230707;23;20091;-86
2022/03/25 07:54:39;;;;;;;31.15;15.60;;;;;;;11.50;27.09;95560.41;6230770;23;20016;-86
2022/03/25 07:57:05;;;;;;;35.25;15.73;;;;;;;8.16;26.85;95009.53;6230211;23;20018;-85
2022/03/25 07:59:31;;;;;;;58.75;16.65;;;;;;;11.71;26.85;95566.44;6228973;23;20012;-85
2022/03/25 08:01:57;;;;;;;38.47;16.30;;;;;;;10.18;27.09;95321.03;6227367;23;20043;-85
2022/03/25 08:04:25;;;;;;;34.25;15.25;;;;;;;8.48;27.30;95065.59;6229300;23;20012;-84
2022/03/25 08:06:52;;;;;;;39.95;14.77;;;;;;;10.29;27.29;95316.53;6230680;23;20039;-85
2022/03/25 08:09:18;;;;;;;33.88;15.38;;;;;;;9.34;27.10;95226.22;6228805;23;20076;-85
2022/03/25 08:11:45;;;;;;;43.38;16.63;;;;;;;10.43;26.55;95355.47;6227302;23;20044;-85
2022/03/25 08:14:12;;;;;;;37.13;15.05;;;;;;;10.37;26.75;95313.34;6231619;23;20016;-84
2022/03/25 08:16:37;;;;;;;33.67;15.25;;;;;;;9.16;26.84;95119.03;6229351;23;20109;-85
2022/03/25 08:19:03;;;;;;;36.80;14.57;;;;;;;10.57;26.64;95354.91;6228615;23;20395;-86
2022/03/25 08:21:28;;;;;;;30.50;14.77;;;;;;;10.84;26.93;95385.34;6227223;23;20672;-86
2022/03/25 08:29:25;;;;;;;35.67;15.00;;;;;;;9.18;26.75;95069.31;6231964;23;20023;-85
2022/03/25 08:31:51;;;;;;;31.17;14.48;;;;;;;10.61;26.47;95287.81;6231322;23;20019;-86
2022/03/25 08:34:17;;;;;;;36.65;14.35;;;;;;;11.14;26.54;95373.03;6229441;23;20012;-85
2022/03/25 08:36:45;;;;;;;35.20;14.73;;;;;;;8.26;26.61;94901.22;6226557;23;20077;-87
2022/03/25 08:39:14;;;;;;;40.20;15.30;;;;;;;8.70;26.17;94987.88;6227239;23;20434;-85
2022/03/25 08:41:40;;;;;;;26.40;12.10;;;;;;;8.21;26.30;94876.66;6228738;23;20098;-85
2022/03/25 08:44:10;;;;;;;30.55;15.25;;;;;;;8.83;26.32;94996.09;6231112;23;20004;-87
2022/03/25 08:46:36;;;;;;;31.33;14.20;;;;;;;8.66;25.93;94931.34;6233133;23;20342;-87
2022/03/25 08:49:03;;;;;;;53.85;14.68;;;;;;;10.28;25.91;95180.56;6227141;23;20016;-88
2022/03/25 08:51:31;;;;;;;37.58;14.40;;;;;;;11.41;25.65;95328.31;6231538;23;20008;-87
2022/03/25 08:54:05;;;;;;;33.25;13.75;;;;;;;12.63;25.48;95533.03;6229095;23;20103;-86
2022/03/25 08:56:51;;;;;;;29.20;13.00;;;;;;;11.20;25.28;95332.16;6227189;23;20027;-86
2022/03/25 08:59:19;;;;;;;41.78;14.98;;;;;;;11.46;25.74;95368.13;6242717;22;20050;-86
2022/03/25 09:01:55;;;;;;;37.75;13.23;;;;;;;10.97;25.59;95272.56;6268188;22;20022;-88
2022/03/25 09:04:23;;;;;;;46.40;13.55;;;;;;;8.91;25.68;94902.19;6256278;22;20003;-85
2022/03/25 09:06:53;;;;;;;33.33;14.10;;;;;;;11.94;25.56;95381.69;6259142;22;20446;-85
2022/03/25 09:09:22;;;;;;;30.33;12.57;;;;;;;9.05;25.00;94923.56;6258694;22;20007;-86
2022/03/25 09:12:14;;;;;;;29.20;13.05;;;;;;;9.18;25.38;94941.50;6262129;22;20011;-85
2022/03/25 09:14:39;;;;;;;26.20;11.95;;;;;;;9.20;25.20;94945.47;6260347;22;20069;-86
2022/03/25 09:17:18;;;;;;;25.10;12.38;;;;;;;9.43;24.91;94951.22;6259689;22;20011;-85
2022/03/25 09:19:47;;;;;;;25.27;12.43;;;;;;;10.07;24.22;95078.28;6260487;22;20369;-86
2022/03/25 09:22:18;;;;;;;26.02;12.82;;;;;;;12.05;24.29;95335.34;6261371;22;20099;-86
2022/03/25 09:24:52;;;;;;;22.02;11.18;;;;;;;10.96;23.90;95174.63;6262888;22;20080;-84
2022/03/25 09:27:23;;;;;;;30.90;13.05;;;;;;;11.07;23.95;95168.97;6259744;22;20050;-86
2022/03/25 09:29:56;;;;;;;29.83;12.63;;;;;;;11.98;24.26;95309.06;6260070;22;20034;-86
2022/03/25 09:32:27;;;;;;;35.83;13.32;;;;;;;9.44;24.15;94897.22;6250454;22;20012;-86
2022/03/25 09:35:08;;;;;;;24.05;12.05;;;;;;;9.41;23.51;94881.88;6259279;22;20015;-86
2022/03/25 09:37:42;;;;;;;31.25;11.68;;;;;;;12.20;23.30;95286.56;6257405;22;20022;-85
2022/03/25 09:40:13;;;;;;;33.53;11.90;;;;;;;9.62;22.98;94921.19;6257933;22;20007;-85
2022/03/25 09:42:42;;;;;;;24.17;11.98;;;;;;;8.63;23.35;94725.66;6258672;22;20039;-87
2022/03/25 09:45:13;;;;;;;26.88;11.57;;;;;;;13.40;23.12;95515.34;6261039;22;20304;-86
2022/03/25 09:47:39;;;;;;;31.98;11.77;;;;;;;12.26;23.35;95331.44;6259635;22;20035;-84
2022/03/25 09:50:08;;;;;;;27.70;12.05;;;;;;;8.77;23.53;94795.41;6256552;22;20018;-87
2022/03/25 09:52:34;;;;;;;30.67;11.82;;;;;;;12.12;23.49;95274.69;6254086;22;20102;-86
2022/03/25 09:55:01;;;;;;;28.33;11.90;;;;;;;13.93;23.16;95533.13;6261380;22;20039;-87
2022/03/25 09:57:29;;;;;;;22.30;10.75;;;;;;;9.67;23.01;94910.59;6262690;22;20012;-84
2022/03/25 09:59:54;;;;;;;26.20;10.68;;;;;;;11.38;22.95;95100.50;6259452;22;20422;-85
2022/03/25 10:02:24;;;;;;;27.40;11.70;;;;;;;11.36;22.78;95102.66;6265414;22;20012;-85
2022/03/25 10:04:59;;;;;;;28.67;11.10;;;;;;;12.16;22.89;95250.97;6264526;22;20007;-87
2022/03/25 10:07:27;;;;;;;25.90;10.40;;;;;;;11.23;22.67;95042.25;6261537;22;20343;-86
2022/03/25 10:10:09;;;;;;;21.30;10.35;;;;;;;10.64;21.42;94862.94;6257682;22;20425;-84
2022/03/25 10:12:36;;;;;;;23.20;10.68;;;;;;;11.82;20.91;94978.16;6261234;22;20506;-86
2022/03/25 10:15:20;;;;;;;23.77;10.18;;;;;;;16.08;20.49;95544.38;6258764;22;20046;-85
2022/03/25 10:18:04;;;;;;;23.52;9.82;;;;;;;12.84;20.02;95009.34;6260978;22;20015;-85
2022/03/25 10:20:56;;;;;;;20.15;9.70;;;;;;;14.38;19.86;95219.56;6261279;22;20011;-86
2022/03/25 10:23:21;;;;;;;;;;;;;;;17.08;19.19;95532.50;6268878;22;20030;-87
2022/03/25 10:25:57;;;;;;;21.88;10.32;;;;;;;13.55;19.30;94917.53;6294964;22;19910;-87
2022/03/25 10:28:27;;;;;;;20.45;9.32;;;;;;;17.99;18.61;95523.97;6291504;22;20393;-86
2022/03/25 10:30:56;;;;;;;18.13;9.48;;;;;;;13.86;18.78;94873.16;6291908;22;20018;-86
2022/03/25 10:33:30;;;;;;;22.45;8.93;;;;;;;16.92;17.97;95274.91;6290607;22;20236;-86
2022/03/25 10:36:08;;;;;;;24.42;8.65;;;;;;;15.86;17.76;95042.31;6285933;22;20373;-87
2022/03/25 10:38:58;;;;;;;23.98;9.88;;;;;;;18.22;18.14;95522.75;6289558;22;20482;-88
2022/03/25 10:41:35;;;;;;;19.00;8.95;;;;;;;15.87;18.18;95131.34;6292809;22;20303;-86
2022/03/25 10:44:04;;;;;;;19.65;9.98;;;;;;;17.93;18.11;95405.22;6293772;22;20015;-83
2022/03/25 10:46:41;;;;;;;22.00;8.52;;;;;;;17.19;17.52;95294.50;6294793;22;20074;-85
2022/03/25 10:49:15;;;;;;;20.90;9.45;;;;;;;14.68;17.59;94934.19;6288978;22;20011;-87
2022/03/25 10:51:55;;;;;;;26.77;9.73;;;;;;;18.29;17.17;95485.50;6287622;22;20011;-85
2022/03/25 10:54:27;;;;;;;21.33;8.82;;;;;;;14.64;17.81;94999.97;6289004;22;20011;-86
2022/03/25 10:57:05;;;;;;;20.30;8.73;;;;;;;17.34;17.44;95331.59;6297836;22;20056;-86
2022/03/25 11:03:16;;;;;;;;;;;;;;;18.58;17.78;95535.16;6294391;22;20088;-86
2022/03/25 11:05:50;;;;;;;20.60;8.65;;;;;;;14.28;17.78;94820.44;6293811;22;19953;-89
2022/03/25 11:08:45;;;;;;;17.35;8.40;;;;;;;19.20;17.07;95504.13;6297818;22;20547;-86
2022/03/25 11:11:15;;;;;;;23.27;9.05;;;;;;;14.85;17.42;94903.34;6269509;22;20054;-87
2022/03/25 11:13:51;;;;;;;21.08;8.45;;;;;;;18.12;17.31;95384.25;6296120;22;20084;-85
2022/03/25 11:16:18;;;;;;;19.25;8.85;;;;;;;14.92;17.73;94991.81;6295871;22;20007;-86
2022/03/25 11:18:48;;;;;;;21.15;8.57;;;;;;;16.89;17.58;95278.19;6295086;22;20011;-84
2022/03/25 11:21:15;;;;;;;22.80;8.68;;;;;;;17.39;17.43;95311.91;6295601;22;20018;-85
2022/03/25 11:23:52;;;;;;;16.63;7.85;;;;;;;17.13;17.55;95248.31;6296080;22;20449;-85
2022/03/25 11:26:26;;;;;;;18.42;8.45;;;;;;;17.11;17.27;95209.53;6289112;22;20685;-85
2022/03/25 11:29:01;;;;;;;18.80;8.35;;;;;;;17.10;17.58;95219.44;6284225;22;20090;-86
2022/03/25 11:31:27;;;;;;;19.45;8.13;;;;;;;19.04;17.37;95484.22;6294606;22;20003;-86
2022/03/25 11:34:12;;;;;;;25.75;7.90;;;;;;;16.92;17.40;95207.16;6262603;22;20734;-85
2022/03/25 11:37:05;;;;;;;18.20;7.43;;;;;;;17.61;17.05;95387.69;6290515;22;20011;-84
2022/03/25 11:39:35;;;;;;;15.80;8.35;;;;;;;17.48;17.36;95352.91;6289863;22;20019;-84
2022/03/25 11:42:04;;;;;;;19.55;8.63;;;;;;;18.03;17.69;95434.47;6287872;22;20011;-85
2022/03/25 11:44:30;;;;;;;20.88;8.55;;;;;;;16.34;17.68;95138.59;6298727;22;20023;-85
2022/03/25 11:46:58;;;;;;;12.05;7.68;;;;;;;18.58;17.21;95486.81;6297017;22;20304;-84
2022/03/25 11:49:25;;;;;;;22.63;8.48;;;;;;;17.90;17.46;95427.34;6289169;22;20335;-85
2022/03/25 11:51:51;;;;;;;18.70;7.63;;;;;;;17.97;17.31;95438.41;6295178;22;20010;-85
2022/03/25 11:54:35;;;;;;;15.55;8.13;;;;;;;18.64;17.55;95474.78;6291329;22;20002;-84
2022/03/25 11:57:03;;;;;;;20.20;7.85;;;;;;;18.10;17.71;95428.63;6292594;22;20011;-84
2022/03/25 11:59:52;;;;;;;21.38;7.63;;;;;;;18.75;17.21;95481.44;6289329;22;20164;-84
2022/03/25 12:02:32;;;;;;;19.55;8.35;;;;;;;18.71;16.78;95491.22;6291147;22;20016;-83
2022/03/25 12:04:59;;;;;;;12.60;7.25;;;;;;;18.76;16.68;95467.69;6292712;22;20242;-82
2022/03/25 12:07:25;;;;;;;16.15;7.30;;;;;;;17.91;16.76;95318.13;6291072;22;20085;-84
2022/03/25 12:09:50;;;;;;;16.23;7.30;;;;;;;18.60;16.56;95453.16;6293975;22;20014;-83
2022/03/25 12:12:18;;;;;;;15.55;7.30;;;;;;;18.55;16.57;95412.19;6293713;22;20003;-83
2022/03/25 12:15:10;;;;;;;19.48;6.93;;;;;;;18.27;16.49;95476.97;6293125;22;20011;-84
2022/03/25 12:17:37;;;;;;;22.92;6.78;;;;;;;17.97;16.20;95445.66;6293866;22;20000;-83
2022/03/25 12:20:05;;;;;;;14.00;6.25;;;;;;;18.32;16.34;95462.59;6289915;22;20022;-83
2022/03/25 12:22:33;;;;;;;15.25;6.35;;;;;;;17.34;16.32;95292.19;6293628;22;20018;-83
2022/03/25 12:25:13;;;;;;;27.00;7.72;;;;;;;18.69;15.78;95443.16;6295408;22;20289;-84
2022/03/25 12:27:40;;;;;;;25.35;8.55;;;;;;;18.74;15.88;95456.47;6289494;22;20014;-84
2022/03/25 12:30:06;;;;;;;22.17;6.50;;;;;;;17.97;15.46;95422.31;6289511;22;20036;-84
2022/03/25 12:32:35;;;;;;;11.93;6.25;;;;;;;17.43;15.89;95294.88;6287200;22;20120;-84
2022/03/25 12:35:05;;;;;;;19.77;6.05;;;;;;;18.38;15.06;95403.06;6284758;22;20011;-85
2022/03/25 12:37:40;;;;;;;13.38;5.40;;;;;;;18.94;14.97;95473.81;6280585;22;20114;-84
2022/03/25 12:40:13;;;;;;;13.75;6.00;;;;;;;18.22;14.76;95414.59;6285787;22;20011;-84
2022/03/25 12:42:39;;;;;;;15.77;5.95;;;;;;;18.87;14.71;95474.28;6285730;22;20117;-84
2022/03/25 12:45:05;;;;;;;14.55;5.00;;;;;;;18.84;14.42;95469.53;6276081;22;20033;-83
2022/03/25 12:47:35;;;;;;;15.48;5.70;;;;;;;18.88;14.37;95458.97;6281972;22;20011;-83
2022/03/25 12:50:02;;;;;;;14.98;5.60;;;;;;;17.99;14.63;95349.53;6280891;22;20393;-84
2022/03/25 12:52:31;;;;;;;20.13;6.25;;;;;;;17.82;14.37;95368.31;6280190;22;20386;-83
2022/03/25 12:55:15;;;;;;;13.30;5.75;;;;;;;18.53;14.04;95466.25;6279373;22;20058;-83
2022/03/25 12:57:42;;;;;;;28.20;6.03;;;;;;;17.97;14.29;95376.69;6280814;22;20153;-83
2022/03/25 13:00:11;;;;;;;8.90;4.93;;;;;;;17.79;14.00;95399.22;6276177;22;20877;-82
2022/03/25 13:02:46;;;;;;;11.73;5.13;;;;;;;18.10;14.05;95432.09;6268805;22;20015;-83
2022/03/25 13:05:18;;;;;;;23.10;6.45;;;;;;;18.28;14.26;95457.06;6275134;22;21083;-81
2022/03/25 13:07:56;;;;;;;14.93;5.38;;;;;;;16.58;14.02;95179.13;6278992;22;20031;-82
2022/03/25 13:10:35;;;;;;;15.85;6.13;;;;;;;16.74;13.81;95174.16;6272897;22;20489;-83
2022/03/25 13:13:04;;;;;;;19.80;5.85;;;;;;;17.27;13.92;95264.25;6283908;22;20422;-84
2022/03/25 13:15:36;;;;;;;13.98;5.78;;;;;;;17.56;13.80;95336.84;6277186;22;20019;-83
2022/03/25 13:18:08;;;;;;;12.88;5.25;;;;;;;16.95;13.70;95215.34;6281600;22;20015;-83
2022/03/25 13:20:47;;;;;;;11.68;5.32;;;;;;;18.50;13.80;95481.09;6281793;22;20007;-82
2022/03/25 13:23:18;;;;;;;15.70;5.80;;;;;;;16.20;13.86;95186.88;6283495;22;20030;-81
2022/03/25 13:25:44;;;;;;;14.88;5.22;;;;;;;18.20;13.84;95476.63;6278506;22;20413;-81
2022/03/25 13:28:11;;;;;;;17.20;5.80;;;;;;;16.85;14.02;95269.22;6286726;22;20015;-82
2022/03/25 13:31:16;;;;;;;21.55;5.28;;;;;;;17.97;13.92;95470.59;6293523;22;20041;-82
2022/03/25 13:33:42;;;;;;;17.95;5.35;;;;;;;18.33;13.84;95467.63;6279899;22;20354;-81
2022/03/25 13:36:11;;;;;;;9.70;4.85;;;;;;;18.23;13.56;95489.44;6278540;22;20015;-82
2022/03/25 13:38:36;;;;;;;14.73;4.80;;;;;;;17.95;13.58;95507.69;6282280;22;20009;-82
2022/03/25 13:41:11;;;;;;;13.98;5.75;;;;;;;13.95;13.84;94873.25;6279520;22;20186;-81
2022/03/25 13:43:40;;;;;;;8.80;5.20;;;;;;;13.88;13.81;94864.88;6279851;22;20574;-81
2022/03/25 13:46:10;;;;;;;11.93;5.95;;;;;;;14.23;14.29;94954.72;6282300;22;20019;-82
2022/03/25 13:48:40;;;;;;;15.07;6.07;;;;;;;18.07;13.86;95494.47;6275092;22;20018;-81
2022/03/25 13:51:22;;;;;;;14.70;7.00;;;;;;;16.48;14.25;95250.91;6276526;22;20007;-82
2022/03/25 13:53:48;;;;;;;13.13;7.10;;;;;;;16.17;14.15;95266.97;6283937;22;20006;-82
2022/03/25 13:56:16;;;;;;;15.65;7.10;;;;;;;17.84;14.08;95495.66;6282633;22;20275;-82
2022/03/25 13:58:56;;;;;;;30.58;7.70;;;;;;;18.03;14.01;95498.06;6278977;22;20369;-82
2022/03/25 14:01:43;;;;;;;15.68;6.93;;;;;;;13.57;14.11;94829.31;6278722;22;20496;-81
2022/03/25 14:04:15;;;;;;;25.00;7.47;;;;;;;18.10;14.03;95479.63;6281128;22;20101;-81
2022/03/25 14:06:41;;;;;;;;;;;;;;;18.00;13.92;95479.94;6284557;22;20012;-82
2022/03/25 14:09:46;;;;;;;23.08;7.28;;;;;;;18.24;13.95;95501.75;6280156;22;20302;-82
2022/03/25 14:12:15;;;;;;;14.80;7.43;;;;;;;18.00;13.80;95485.28;6258437;22;20031;-82
2022/03/25 14:15:13;;;;;;;30.48;7.75;;;;;;;17.81;13.63;95496.28;6278127;22;20010;-81
2022/03/25 14:17:41;;;;;;;18.60;7.75;;;;;;;13.67;14.10;94874.38;6278562;22;20485;-81
2022/03/25 14:20:12;;;;;;;15.40;7.18;;;;;;;16.53;13.94;95275.66;6281076;22;20015;-82
2022/03/25 14:22:46;;;;;;;19.40;6.65;;;;;;;16.41;13.65;95298.72;6280202;22;20058;-82
2022/03/25 14:25:16;;;;;;;20.88;7.80;;;;;;;16.93;13.89;95469.38;6285420;22;20454;-83
2022/03/25 14:27:59;;;;;;;20.53;6.57;;;;;;;15.71;13.87;95189.75;6279707;22;20533;-81
2022/03/25 14:30:30;;;;;;;16.25;7.55;;;;;;;15.64;13.90;95154.66;6277875;22;20023;-81
2022/03/25 14:32:56;;;;;;;19.40;7.50;;;;;;;14.39;14.01;94959.72;6283059;22;20003;-81
2022/03/25 14:35:22;;;;;;;30.17;8.15;;;;;;;13.82;13.95;94884.72;6281890;22;20076;-82
2022/03/25 14:37:51;;;;;;;20.38;8.30;;;;;;;13.65;13.95;94855.25;6281653;22;20007;-83
2022/03/25 14:40:18;;;;;;;26.80;7.97;;;;;;;13.82;13.64;94866.84;6282902;22;20203;-82
2022/03/25 14:42:44;;;;;;;17.42;7.53;;;;;;;15.78;13.53;95187.44;6280882;22;20663;-82
2022/03/25 14:45:09;;;;;;;18.77;7.82;;;;;;;15.78;13.53;95187.44;6282702;22;20011;-83
2022/03/25 14:47:36;;;;;;;17.02;7.65;;;;;;;16.09;13.56;95283.78;6279840;22;20114;-82
2022/03/25 14:50:06;;;;;;;26.02;8.77;;;;;;;13.53;13.86;94930.34;6283013;22;20118;-82
2022/03/25 14:52:32;;;;;;;32.25;7.97;;;;;;;17.65;13.71;95513.91;6287157;22;20003;-83
2022/03/25 14:54:58;;;;;;;18.90;9.00;;;;;;;16.93;13.62;95415.00;6286907;22;20007;-83
2022/03/25 14:57:25;;;;;;;20.05;8.82;;;;;;;15.13;13.75;95091.72;6283923;22;20098;-82
2022/03/25 14:59:51;;;;;;;23.40;10.90;;;;;;;15.70;13.85;95314.63;6285297;22;20476;-82
2022/03/25 15:02:18;;;;;;;23.10;9.95;;;;;;;17.30;13.90;95539.72;6278317;22;20015;-82
2022/03/25 15:04:43;;;;;;;25.20;10.85;;;;;;;14.74;13.99;95087.00;6277340;22;20007;-82
2022/03/25 15:07:10;;;;;;;25.73;12.07;;;;;;;16.48;14.15;95369.47;6282916;22;20007;-84
2022/03/25 15:09:37;;;;;;;35.38;13.48;;;;;;;17.45;13.99;95517.09;6284868;22;20359;-83
2022/03/25 15:12:03;;;;;;;25.27;12.68;;;;;;;15.05;14.65;95202.72;6285586;22;20022;-84
2022/03/25 15:14:31;;;;;;;34.67;15.00;;;;;;;16.66;14.93;95407.91;6284465;22;20115;-83
2022/03/25 15:16:57;;;;;;;27.45;14.48;;;;;;;16.26;14.92;95366.81;6287057;22;20000;-84
2022/03/25 15:19:23;;;;;;;25.10;13.82;;;;;;;16.88;15.16;95567.78;6289377;22;20041;-84
2022/03/25 15:21:49;;;;;;;35.72;15.52;;;;;;;15.73;15.51;95347.97;6286122;22;20011;-85
2022/03/25 15:24:15;;;;;;;29.25;13.95;;;;;;;15.96;15.40;95407.63;6288320;22;20481;-83
2022/03/25 15:26:40;;;;;;;24.55;13.05;;;;;;;17.05;15.42;95537.66;6284232;22;20046;-83
2022/03/25 15:29:06;;;;;;;28.33;13.50;;;;;;;16.03;15.56;95430.22;6290028;22;20498;-84
2022/03/25 15:34:27;;;;;;;25.92;12.75;;;;;;;16.28;15.91;95519.84;6292472;22;20045;-84
2022/03/25 15:36:58;;;;;;;36.30;14.85;;;;;;;15.93;16.40;95499.19;6287508;22;20003;-83
2022/03/25 15:39:59;;;;;;;;;;;;;;;16.40;16.70;95544.19;6290100;22;20021;-84
2022/03/25 15:42:12;;;;;;;28.45;13.57;;;;;;;15.59;16.52;95440.78;6286833;22;19918;-84
2022/03/25 15:44:41;;;;;;;33.42;14.48;;;;;;;15.56;16.78;95462.78;6288752;22;20085;-84
2022/03/25 15:47:10;;;;;;;31.00;13.90;;;;;;;14.92;16.78;95430.53;6285917;22;20007;-83
2022/03/25 15:49:35;;;;;;;24.15;13.52;;;;;;;14.55;16.82;95409.28;6287819;22;20107;-84
2022/03/25 15:52:02;;;;;;;29.95;12.77;;;;;;;15.19;16.90;95477.84;6284375;22;20853;-84
2022/03/25 15:54:29;;;;;;;20.83;11.88;;;;;;;13.39;17.40;95191.41;6291319;22;20015;-84
2022/03/25 15:56:54;;;;;;;26.75;12.35;;;;;;;14.17;17.18;95365.84;6291999;22;20425;-84
2022/03/25 15:59:20;;;;;;;20.52;11.75;;;;;;;14.59;17.39;95448.44;6290883;22;20015;-84
2022/03/25 16:01:45;;;;;;;30.00;12.10;;;;;;;14.94;17.58;95550.41;6290842;22;20011;-84
2022/03/25 16:04:11;;;;;;;30.95;12.18;;;;;;;14.67;17.51;95505.72;6283311;22;20011;-85
2022/03/25 16:06:36;;;;;;;23.92;12.07;;;;;;;13.13;18.02;95278.88;6290945;22;20017;-83
2022/03/25 16:09:02;;;;;;;21.88;11.60;;;;;;;14.13;18.33;95476.84;6290865;22;20015;-85